sensor_id;sensor_type;location;lat;lon;timestamp;pressure;altitude;pressure_sealevel;temperature;humidity
57376;BME280;44805;45.048;5.062;2023-04-29T00:01:28;99554.81;;;18.09;76.36
57376;BME280;44805;45.048;5.062;2023-04-29T00:03:53;99549.09;;;18.12;75.08
57376;BME280;44805;45.048;5.062;2023-04-29T00:06:18;99547.25;;;18.12;75.05
57376;BME280;44805;45.048;5.062;2023-04-29T00:08:44;99543.56;;;18.20;76.23
57376;BME280;44805;45.048;5.062;2023-04-29T00:11:09;99539.66;;;18.16;75.41
57376;BME280;44805;45.048;5.062;2023-04-29T00:19:43;99526.53;;;18.08;74.57
57376;BME280;44805;45.048;5.062;2023-04-29T00:22:09;99521.22;;;18.08;74.35
57376;BME280;44805;45.048;5.062;2023-04-29T00:24:34;99518.34;;;18.09;74.67
57376;BME280;44805;45.048;5.062;2023-04-29T00:27:00;99516.72;;;18.15;73.60
57376;BME280;44805;45.048;5.062;2023-04-29T00:29:26;99516.28;;;18.05;73.85
57376;BME280;44805;45.048;5.062;2023-04-29T00:31:51;99510.56;;;18.08;73.96
57376;BME280;44805;45.048;5.062;2023-04-29T00:34:17;99501.75;;;18.07;73.31
57376;BME280;44805;45.048;5.062;2023-04-29T00:36:42;99510.53;;;18.01;74.10
57376;BME280;44805;45.048;5.062;2023-04-29T00:39:07;99514.84;;;18.02;73.39
57376;BME280;44805;45.048;5.062;2023-04-29T00:41:33;99510.97;;;18.05;73.85
57376;BME280;44805;45.048;5.062;2023-04-29T00:43:58;99513.81;;;17.96;73.38
57376;BME280;44805;45.048;5.062;2023-04-29T00:46:23;99519.56;;;18.00;73.85
57376;BME280;44805;45.048;5.062;2023-04-29T00:48:49;99514.19;;;17.93;73.30
57376;BME280;44805;45.048;5.062;2023-04-29T00:51:14;99504.81;;;17.97;72.75
57376;BME280;44805;45.048;5.062;2023-04-29T00:53:41;99503.38;;;18.02;73.20
57376;BME280;44805;45.048;5.062;2023-04-29T00:56:06;99503.38;;;18.02;72.64
57376;BME280;44805;45.048;5.062;2023-04-29T01:01:34;99509.91;;;17.92;72.99
57376;BME280;44805;45.048;5.062;2023-04-29T01:04:00;99509.94;;;17.99;72.75
57376;BME280;44805;45.048;5.062;2023-04-29T01:06:33;99512.97;;;17.96;72.66
57376;BME280;44805;45.048;5.062;2023-04-29T01:11:34;99515.25;;;17.92;72.53
57376;BME280;44805;45.048;5.062;2023-04-29T01:14:00;99517.28;;;17.90;72.69
57376;BME280;44805;45.048;5.062;2023-04-29T01:16:36;99512.78;;;17.97;73.07
57376;BME280;44805;45.048;5.062;2023-04-29T01:19:15;99518.75;;;17.99;72.13
57376;BME280;44805;45.048;5.062;2023-04-29T01:21:47;99514.44;;;18.05;72.14
57376;BME280;44805;45.048;5.062;2023-04-29T01:24:13;99506.44;;;17.98;72.21
57376;BME280;44805;45.048;5.062;2023-04-29T01:26:38;99503.97;;;18.04;71.87
57376;BME280;44805;45.048;5.062;2023-04-29T01:35:03;99497.84;;;17.96;72.94
57376;BME280;44805;45.048;5.062;2023-04-29T01:42:47;99480.63;;;17.92;72.85
57376;BME280;44805;45.048;5.062;2023-04-29T01:45:15;99480.00;;;17.90;72.75
57376;BME280;44805;45.048;5.062;2023-04-29T01:47:42;99485.94;;;17.92;72.54
57376;BME280;44805;45.048;5.062;2023-04-29T01:50:08;99489.63;;;17.91;73.15
57376;BME280;44805;45.048;5.062;2023-04-29T01:52:34;99482.66;;;17.90;73.44
57376;BME280;44805;45.048;5.062;2023-04-29T01:55:00;99479.38;;;17.88;73.15
57376;BME280;44805;45.048;5.062;2023-04-29T01:57:26;99475.09;;;17.94;72.77
57376;BME280;44805;45.048;5.062;2023-04-29T01:59:51;99465.88;;;17.96;72.88
57376;BME280;44805;45.048;5.062;2023-04-29T02:02:16;99456.25;;;18.02;72.48
57376;BME280;44805;45.048;5.062;2023-04-29T02:04:45;99452.16;;;17.99;71.91
57376;BME280;44805;45.048;5.062;2023-04-29T02:07:10;99457.88;;;17.90;72.11
57376;BME280;44805;45.048;5.062;2023-04-29T02:09:35;99460.53;;;17.90;72.17
57376;BME280;44805;45.048;5.062;2023-04-29T02:12:01;99450.28;;;17.87;72.59
57376;BME280;44805;45.048;5.062;2023-04-29T02:14:28;99453.16;;;17.85;72.88
57376;BME280;44805;45.048;5.062;2023-04-29T02:16:54;99463.34;;;17.75;73.34
57376;BME280;44805;45.048;5.062;2023-04-29T02:19:19;99499.75;;;17.54;74.19
57376;BME280;44805;45.048;5.062;2023-04-29T02:21:44;99577.81;;;17.27;74.93
57376;BME280;44805;45.048;5.062;2023-04-29T02:24:10;99662.38;;;17.03;75.93
57376;BME280;44805;45.048;5.062;2023-04-29T02:26:35;99691.78;;;16.95;76.80
57376;BME280;44805;45.048;5.062;2023-04-29T02:35:07;99646.72;;;17.50;76.58
57376;BME280;44805;45.048;5.062;2023-04-29T02:37:33;99627.91;;;17.51;77.24
57376;BME280;44805;45.048;5.062;2023-04-29T02:39:58;99633.41;;;17.43;78.37
57376;BME280;44805;45.048;5.062;2023-04-29T02:42:24;99636.88;;;17.44;80.53
57376;BME280;44805;45.048;5.062;2023-04-29T02:44:49;99638.09;;;17.41;82.85
57376;BME280;44805;45.048;5.062;2023-04-29T02:47:14;99630.16;;;17.20;87.63
57376;BME280;44805;45.048;5.062;2023-04-29T02:49:39;99645.88;;;17.14;90.77
57376;BME280;44805;45.048;5.062;2023-04-29T02:52:05;99646.66;;;17.08;94.44
57376;BME280;44805;45.048;5.062;2023-04-29T02:54:30;99651.34;;;17.06;94.17
57376;BME280;44805;45.048;5.062;2023-04-29T02:56:55;99641.09;;;17.03;98.04
57376;BME280;44805;45.048;5.062;2023-04-29T02:59:21;99650.94;;;17.09;98.73
57376;BME280;44805;45.048;5.062;2023-04-29T03:01:46;99629.50;;;17.11;98.51
57376;BME280;44805;45.048;5.062;2023-04-29T03:04:12;99627.56;;;16.98;97.91
57376;BME280;44805;45.048;5.062;2023-04-29T03:06:37;99623.88;;;16.99;97.64
57376;BME280;44805;45.048;5.062;2023-04-29T03:09:03;99620.94;;;16.87;99.22
57376;BME280;44805;45.048;5.062;2023-04-29T03:11:28;99619.09;;;16.88;100.00
57376;BME280;44805;45.048;5.062;2023-04-29T03:13:53;99619.31;;;16.93;99.41
57376;BME280;44805;45.048;5.062;2023-04-29T03:16:19;99620.16;;;16.93;98.61
57376;BME280;44805;45.048;5.062;2023-04-29T03:18:45;99600.78;;;16.78;99.36
57376;BME280;44805;45.048;5.062;2023-04-29T03:21:10;99587.75;;;16.83;100.00
57376;BME280;44805;45.048;5.062;2023-04-29T03:23:36;99588.56;;;16.84;99.29
57376;BME280;44805;45.048;5.062;2023-04-29T03:26:03;99579.88;;;16.75;98.98
57376;BME280;44805;45.048;5.062;2023-04-29T03:28:28;99573.75;;;16.75;99.56
57376;BME280;44805;45.048;5.062;2023-04-29T03:30:54;99568.06;;;16.78;100.00
57376;BME280;44805;45.048;5.062;2023-04-29T03:33:20;99572.44;;;16.64;100.00
57376;BME280;44805;45.048;5.062;2023-04-29T03:35:46;99565.41;;;16.56;100.00
57376;BME280;44805;45.048;5.062;2023-04-29T03:38:11;99557.44;;;16.78;100.00
57376;BME280;44805;45.048;5.062;2023-04-29T03:40:36;99560.09;;;16.78;100.00
57376;BME280;44805;45.048;5.062;2023-04-29T03:43:01;99551.16;;;16.85;100.00
57376;BME280;44805;45.048;5.062;2023-04-29T03:45:27;99555.66;;;16.63;100.00
57376;BME280;44805;45.048;5.062;2023-04-29T03:47:52;99550.00;;;16.73;100.00
57376;BME280;44805;45.048;5.062;2023-04-29T03:50:18;99544.13;;;16.56;100.00
57376;BME280;44805;45.048;5.062;2023-04-29T03:52:43;99543.53;;;16.54;100.00
57376;BME280;44805;45.048;5.062;2023-04-29T03:55:09;99523.47;;;16.30;100.00
57376;BME280;44805;45.048;5.062;2023-04-29T03:57:34;99522.16;;;16.19;100.00
57376;BME280;44805;45.048;5.062;2023-04-29T03:59:59;99528.19;;;16.06;100.00
57376;BME280;44805;45.048;5.062;2023-04-29T04:02:25;99524.44;;;16.01;100.00
57376;BME280;44805;45.048;5.062;2023-04-29T04:04:50;99520.78;;;16.02;100.00
57376;BME280;44805;45.048;5.062;2023-04-29T04:07:15;99526.53;;;16.05;100.00
57376;BME280;44805;45.048;5.062;2023-04-29T04:09:41;99526.34;;;16.07;100.00
57376;BME280;44805;45.048;5.062;2023-04-29T04:12:06;99520.72;;;15.95;100.00
57376;BME280;44805;45.048;5.062;2023-04-29T04:14:31;99531.66;;;16.07;100.00
57376;BME280;44805;45.048;5.062;2023-04-29T04:16:56;99531.97;;;16.19;100.00
57376;BME280;44805;45.048;5.062;2023-04-29T04:19:22;99533.28;;;16.30;100.00
57376;BME280;44805;45.048;5.062;2023-04-29T04:21:47;99529.88;;;16.14;100.00
57376;BME280;44805;45.048;5.062;2023-04-29T04:24:12;99527.16;;;16.29;100.00
57376;BME280;44805;45.048;5.062;2023-04-29T04:26:38;99520.06;;;16.36;100.00
57376;BME280;44805;45.048;5.062;2023-04-29T04:29:03;99516.56;;;16.36;100.00
57376;BME280;44805;45.048;5.062;2023-04-29T04:31:29;99514.94;;;16.35;100.00
57376;BME280;44805;45.048;5.062;2023-04-29T04:33:55;99522.09;;;16.34;100.00
57376;BME280;44805;45.048;5.062;2023-04-29T04:36:20;99526.22;;;16.37;100.00
57376;BME280;44805;45.048;5.062;2023-04-29T04:38:45;99533.88;;;16.46;100.00
57376;BME280;44805;45.048;5.062;2023-04-29T04:41:11;99527.69;;;16.46;100.00
57376;BME280;44805;45.048;5.062;2023-04-29T04:43:36;99534.94;;;16.31;100.00
57376;BME280;44805;45.048;5.062;2023-04-29T04:46:11;99542.84;;;16.24;100.00
57376;BME280;44805;45.048;5.062;2023-04-29T04:48:36;99537.28;;;16.19;100.00
57376;BME280;44805;45.048;5.062;2023-04-29T04:51:11;99550.31;;;16.35;100.00
57376;BME280;44805;45.048;5.062;2023-04-29T04:53:36;99546.19;;;16.33;100.00
57376;BME280;44805;45.048;5.062;2023-04-29T04:56:02;99541.13;;;16.38;100.00
57376;BME280;44805;45.048;5.062;2023-04-29T04:58:28;99557.13;;;16.44;100.00
57376;BME280;44805;45.048;5.062;2023-04-29T05:00:55;99552.56;;;16.38;100.00
57376;BME280;44805;45.048;5.062;2023-04-29T05:03:20;99553.97;;;16.34;100.00
57376;BME280;44805;45.048;5.062;2023-04-29T05:05:51;99556.69;;;16.41;100.00
57376;BME280;44805;45.048;5.062;2023-04-29T05:08:16;99564.66;;;16.41;100.00
57376;BME280;44805;45.048;5.062;2023-04-29T05:10:42;99567.78;;;16.44;100.00
57376;BME280;44805;45.048;5.062;2023-04-29T05:13:07;99571.63;;;16.42;100.00
57376;BME280;44805;45.048;5.062;2023-04-29T05:15:33;99572.44;;;16.42;100.00
57376;BME280;44805;45.048;5.062;2023-04-29T05:17:59;99575.50;;;16.39;100.00
57376;BME280;44805;45.048;5.062;2023-04-29T05:20:24;99569.59;;;16.44;100.00
57376;BME280;44805;45.048;5.062;2023-04-29T05:22:50;99570.19;;;16.39;100.00
57376;BME280;44805;45.048;5.062;2023-04-29T05:25:15;99578.19;;;16.67;100.00
57376;BME280;44805;45.048;5.062;2023-04-29T05:27:40;99570.72;;;16.78;100.00
57376;BME280;44805;45.048;5.062;2023-04-29T05:30:05;99576.97;;;16.70;100.00
57376;BME280;44805;45.048;5.062;2023-04-29T05:32:31;99570.72;;;16.78;100.00
57376;BME280;44805;45.048;5.062;2023-04-29T05:34:56;99578.72;;;16.78;100.00
57376;BME280;44805;45.048;5.062;2023-04-29T05:37:21;99583.13;;;16.70;100.00
57376;BME280;44805;45.048;5.062;2023-04-29T05:39:47;99578.72;;;16.78;100.00
57376;BME280;44805;45.048;5.062;2023-04-29T05:42:12;99586.50;;;16.79;100.00
57376;BME280;44805;45.048;5.062;2023-04-29T05:44:37;99589.03;;;16.87;100.00
57376;BME280;44805;45.048;5.062;2023-04-29T05:47:03;99594.75;;;16.91;100.00
57376;BME280;44805;45.048;5.062;2023-04-29T05:49:29;99575.56;;;16.96;100.00
57376;BME280;44805;45.048;5.062;2023-04-29T05:51:54;99583.84;;;17.07;100.00
57376;BME280;44805;45.048;5.062;2023-04-29T05:54:19;99592.47;;;17.16;100.00
57376;BME280;44805;45.048;5.062;2023-04-29T05:56:45;99586.34;;;17.16;100.00
57376;BME280;44805;45.048;5.062;2023-04-29T05:59:10;99591.66;;;17.16;100.00
57376;BME280;44805;45.048;5.062;2023-04-29T06:01:36;99593.94;;;17.19;100.00
57376;BME280;44805;45.048;5.062;2023-04-29T06:04:01;99592.66;;;17.14;100.00
57376;BME280;44805;45.048;5.062;2023-04-29T06:06:26;99585.56;;;17.22;100.00
57376;BME280;44805;45.048;5.062;2023-04-29T06:08:55;99590.28;;;17.26;100.00
57376;BME280;44805;45.048;5.062;2023-04-29T06:11:20;99585.78;;;17.27;100.00
57376;BME280;44805;45.048;5.062;2023-04-29T06:13:46;99585.47;;;17.08;100.00
57376;BME280;44805;45.048;5.062;2023-04-29T06:16:11;99585.78;;;17.27;100.00
57376;BME280;44805;45.048;5.062;2023-04-29T06:18:37;99581.09;;;17.29;100.00
57376;BME280;44805;45.048;5.062;2023-04-29T06:21:05;99577.00;;;17.26;100.00
57376;BME280;44805;45.048;5.062;2023-04-29T06:23:30;99577.47;;;17.36;100.00
57376;BME280;44805;45.048;5.062;2023-04-29T06:25:56;99579.38;;;17.49;100.00
57376;BME280;44805;45.048;5.062;2023-04-29T06:28:22;99580.41;;;17.55;99.31
57376;BME280;44805;45.048;5.062;2023-04-29T06:30:52;99585.72;;;17.48;97.85
57376;BME280;44805;45.048;5.062;2023-04-29T06:33:18;99582.88;;;17.56;99.21
57376;BME280;44805;45.048;5.062;2023-04-29T06:35:43;99590.28;;;17.61;99.00
57376;BME280;44805;45.048;5.062;2023-04-29T06:38:11;99601.34;;;17.65;98.00
57376;BME280;44805;45.048;5.062;2023-04-29T06:40:36;99599.28;;;17.60;97.37
57376;BME280;44805;45.048;5.062;2023-04-29T06:43:04;99596.91;;;17.37;97.64
57376;BME280;44805;45.048;5.062;2023-04-29T06:45:39;99589.38;;;17.47;98.63
57376;BME280;44805;45.048;5.062;2023-04-29T06:48:04;99595.41;;;17.63;97.10
57376;BME280;44805;45.048;5.062;2023-04-29T06:50:30;99585.75;;;17.55;98.62
57376;BME280;44805;45.048;5.062;2023-04-29T06:52:55;99592.72;;;17.63;97.72
57376;BME280;44805;45.048;5.062;2023-04-29T06:55:20;99585.63;;;17.35;100.00
57376;BME280;44805;45.048;5.062;2023-04-29T06:57:46;99580.84;;;17.58;98.02
57376;BME280;44805;45.048;5.062;2023-04-29T07:00:11;99569.84;;;17.68;97.25
57376;BME280;44805;45.048;5.062;2023-04-29T07:02:36;99564.94;;;17.72;97.37
57376;BME280;44805;45.048;5.062;2023-04-29T07:05:03;99558.03;;;17.84;97.61
57376;BME280;44805;45.048;5.062;2023-04-29T07:07:28;99561.13;;;17.88;96.81
57376;BME280;44805;45.048;5.062;2023-04-29T07:09:54;99577.69;;;17.83;97.27
57376;BME280;44805;45.048;5.062;2023-04-29T07:12:19;99587.97;;;17.86;96.88
57376;BME280;44805;45.048;5.062;2023-04-29T07:14:44;99591.44;;;17.87;96.05
57376;BME280;44805;45.048;5.062;2023-04-29T07:17:10;99587.78;;;18.01;95.45
57376;BME280;44805;45.048;5.062;2023-04-29T07:19:35;99580.97;;;17.85;96.46
57376;BME280;44805;45.048;5.062;2023-04-29T07:22:00;99575.53;;;17.58;99.37
57376;BME280;44805;45.048;5.062;2023-04-29T07:24:26;99566.72;;;18.13;96.91
57376;BME280;44805;45.048;5.062;2023-04-29T07:26:51;99564.47;;;18.10;96.28
57376;BME280;44805;45.048;5.062;2023-04-29T07:29:16;99566.88;;;17.98;97.04
57376;BME280;44805;45.048;5.062;2023-04-29T07:31:42;99569.31;;;17.86;95.76
57376;BME280;44805;45.048;5.062;2023-04-29T07:34:07;99571.44;;;17.63;95.17
57376;BME280;44805;45.048;5.062;2023-04-29T07:36:32;99571.06;;;17.66;95.58
57376;BME280;44805;45.048;5.062;2023-04-29T07:38:58;99564.81;;;17.87;95.54
57376;BME280;44805;45.048;5.062;2023-04-29T07:41:23;99567.50;;;18.00;93.72
57376;BME280;44805;45.048;5.062;2023-04-29T07:43:48;99560.53;;;18.06;93.83
57376;BME280;44805;45.048;5.062;2023-04-29T07:46:14;99556.06;;;18.13;93.43
57376;BME280;44805;45.048;5.062;2023-04-29T07:48:42;99556.09;;;18.33;93.23
57376;BME280;44805;45.048;5.062;2023-04-29T07:51:11;99561.44;;;18.53;92.18
57376;BME280;44805;45.048;5.062;2023-04-29T07:53:37;99566.38;;;18.56;92.14
57376;BME280;44805;45.048;5.062;2023-04-29T07:56:06;99558.38;;;18.42;91.42
57376;BME280;44805;45.048;5.062;2023-04-29T07:58:31;99561.03;;;18.49;90.49
57376;BME280;44805;45.048;5.062;2023-04-29T08:00:56;99559.59;;;18.47;91.52
57376;BME280;44805;45.048;5.062;2023-04-29T08:03:22;99552.81;;;18.37;91.40
57376;BME280;44805;45.048;5.062;2023-04-29T08:05:47;99564.31;;;18.71;90.13
57376;BME280;44805;45.048;5.062;2023-04-29T08:08:15;99567.56;;;19.13;88.05
57376;BME280;44805;45.048;5.062;2023-04-29T08:10:40;99565.34;;;18.97;88.44
57376;BME280;44805;45.048;5.062;2023-04-29T08:13:07;99549.53;;;18.95;89.89
57376;BME280;44805;45.048;5.062;2023-04-29T08:15:33;99552.75;;;19.30;89.16
57376;BME280;44805;45.048;5.062;2023-04-29T08:17:58;99550.16;;;19.04;89.22
57376;BME280;44805;45.048;5.062;2023-04-29T08:20:23;99551.56;;;19.13;87.97
57376;BME280;44805;45.048;5.062;2023-04-29T08:22:49;99558.84;;;19.51;86.38
57376;BME280;44805;45.048;5.062;2023-04-29T08:25:14;99555.34;;;19.57;87.18
57376;BME280;44805;45.048;5.062;2023-04-29T08:27:40;99567.22;;;19.61;83.80
57376;BME280;44805;45.048;5.062;2023-04-29T08:30:07;99575.25;;;19.68;82.08
57376;BME280;44805;45.048;5.062;2023-04-29T08:32:33;99569.13;;;19.54;84.70
57376;BME280;44805;45.048;5.062;2023-04-29T08:34:59;99570.44;;;19.32;86.27
57376;BME280;44805;45.048;5.062;2023-04-29T08:37:24;99582.78;;;18.99;88.18
57376;BME280;44805;45.048;5.062;2023-04-29T08:39:49;99584.84;;;18.97;89.27
57376;BME280;44805;45.048;5.062;2023-04-29T08:42:14;99587.91;;;18.87;88.31
57376;BME280;44805;45.048;5.062;2023-04-29T08:44:43;99592.19;;;18.49;88.47
57376;BME280;44805;45.048;5.062;2023-04-29T08:47:09;99597.16;;;18.92;86.24
57376;BME280;44805;45.048;5.062;2023-04-29T08:49:34;99604.94;;;18.73;88.64
57376;BME280;44805;45.048;5.062;2023-04-29T08:52:02;99609.44;;;19.19;85.52
57376;BME280;44805;45.048;5.062;2023-04-29T08:54:27;99603.75;;;18.96;86.43
57376;BME280;44805;45.048;5.062;2023-04-29T08:56:52;99608.41;;;19.34;85.66
57376;BME280;44805;45.048;5.062;2023-04-29T08:59:19;99610.69;;;19.17;87.28
57376;BME280;44805;45.048;5.062;2023-04-29T09:01:45;99609.31;;;19.66;84.32
57376;BME280;44805;45.048;5.062;2023-04-29T09:04:28;99623.41;;;19.21;86.16
57376;BME280;44805;45.048;5.062;2023-04-29T09:06:58;99622.97;;;19.38;85.41
57376;BME280;44805;45.048;5.062;2023-04-29T09:09:24;99637.31;;;19.43;84.62
57376;BME280;44805;45.048;5.062;2023-04-29T09:11:50;99654.59;;;19.27;84.42
57376;BME280;44805;45.048;5.062;2023-04-29T09:14:18;99644.34;;;19.18;84.58
57376;BME280;44805;45.048;5.062;2023-04-29T09:16:47;99651.97;;;19.01;85.85
57376;BME280;44805;45.048;5.062;2023-04-29T09:19:28;99660.16;;;18.86;87.63
57376;BME280;44805;45.048;5.062;2023-04-29T09:21:54;99660.16;;;18.86;86.48
57376;BME280;44805;45.048;5.062;2023-04-29T09:24:23;99658.72;;;19.10;86.36
57376;BME280;44805;45.048;5.062;2023-04-29T09:26:52;99660.75;;;19.35;86.17
57376;BME280;44805;45.048;5.062;2023-04-29T09:29:17;99664.88;;;19.30;86.94
57376;BME280;44805;45.048;5.062;2023-04-29T09:31:43;99666.09;;;19.41;85.54
57376;BME280;44805;45.048;5.062;2023-04-29T09:34:09;99657.91;;;19.29;87.94
57376;BME280;44805;45.048;5.062;2023-04-29T09:36:43;99662.97;;;19.71;86.36
57376;BME280;44805;45.048;5.062;2023-04-29T09:39:18;99665.53;;;20.04;83.31
57376;BME280;44805;45.048;5.062;2023-04-29T09:41:57;99668.88;;;19.93;83.78
57376;BME280;44805;45.048;5.062;2023-04-29T09:49:25;99660.97;;;20.11;80.00
57376;BME280;44805;45.048;5.062;2023-04-29T09:51:50;99640.19;;;20.58;77.12
57376;BME280;44805;45.048;5.062;2023-04-29T09:54:19;99647.31;;;20.33;77.25
57376;BME280;44805;45.048;5.062;2023-04-29T09:56:49;99647.22;;;20.46;75.16
57376;BME280;44805;45.048;5.062;2023-04-29T09:59:15;99637.97;;;20.80;72.24
57376;BME280;44805;45.048;5.062;2023-04-29T10:01:41;99636.16;;;20.99;72.47
57376;BME280;44805;45.048;5.062;2023-04-29T10:04:07;99628.38;;;21.16;71.93
57376;BME280;44805;45.048;5.062;2023-04-29T10:06:35;99622.22;;;21.16;71.33
57376;BME280;44805;45.048;5.062;2023-04-29T10:09:01;99623.88;;;21.17;73.06
57376;BME280;44805;45.048;5.062;2023-04-29T10:11:26;99631.47;;;21.20;72.90
57376;BME280;44805;45.048;5.062;2023-04-29T10:13:52;99623.03;;;21.16;69.81
57376;BME280;44805;45.048;5.062;2023-04-29T10:16:27;99626.03;;;21.27;68.41
57376;BME280;44805;45.048;5.062;2023-04-29T10:18:53;99624.84;;;21.22;68.73
57376;BME280;44805;45.048;5.062;2023-04-29T10:21:26;99620.16;;;21.36;69.85
57376;BME280;44805;45.048;5.062;2023-04-29T10:23:53;99625.94;;;21.15;67.06
57376;BME280;44805;45.048;5.062;2023-04-29T10:26:18;99631.00;;;21.23;67.42
57376;BME280;44805;45.048;5.062;2023-04-29T10:28:47;99619.47;;;21.04;67.00
57376;BME280;44805;45.048;5.062;2023-04-29T10:31:15;99614.53;;;21.01;69.52
57376;BME280;44805;45.048;5.062;2023-04-29T10:33:42;99617.47;;;21.18;68.91
57376;BME280;44805;45.048;5.062;2023-04-29T10:36:09;99619.81;;;21.33;68.02
57376;BME280;44805;45.048;5.062;2023-04-29T10:38:36;99611.44;;;20.79;70.21
57376;BME280;44805;45.048;5.062;2023-04-29T10:41:09;99605.50;;;21.20;70.42
57376;BME280;44805;45.048;5.062;2023-04-29T10:43:38;99610.72;;;21.34;69.73
57376;BME280;44805;45.048;5.062;2023-04-29T10:48:44;99603.84;;;21.63;70.52
57376;BME280;44805;45.048;5.062;2023-04-29T10:51:10;99603.69;;;21.76;70.74
57376;BME280;44805;45.048;5.062;2023-04-29T10:53:36;99586.63;;;21.89;71.46
57376;BME280;44805;45.048;5.062;2023-04-29T10:56:20;99582.28;;;22.37;69.37
57376;BME280;44805;45.048;5.062;2023-04-29T10:58:48;99583.53;;;22.04;72.46
57376;BME280;44805;45.048;5.062;2023-04-29T11:01:14;99587.09;;;22.16;71.80
57376;BME280;44805;45.048;5.062;2023-04-29T11:03:47;99590.16;;;22.20;71.62
57376;BME280;44805;45.048;5.062;2023-04-29T11:06:13;99584.31;;;21.37;74.60
57376;BME280;44805;45.048;5.062;2023-04-29T11:08:38;99575.44;;;21.37;75.80
57376;BME280;44805;45.048;5.062;2023-04-29T11:11:09;99582.69;;;21.55;73.46
57376;BME280;44805;45.048;5.062;2023-04-29T11:13:38;99579.94;;;21.61;74.43
57376;BME280;44805;45.048;5.062;2023-04-29T11:16:09;99580.59;;;22.05;71.70
57376;BME280;44805;45.048;5.062;2023-04-29T11:18:35;99585.81;;;21.88;71.95
57376;BME280;44805;45.048;5.062;2023-04-29T11:23:33;99587.94;;;22.28;70.32
57376;BME280;44805;45.048;5.062;2023-04-29T11:25:58;99589.34;;;22.31;68.84
57376;BME280;44805;45.048;5.062;2023-04-29T11:28:23;99591.16;;;22.19;69.79
57376;BME280;44805;45.048;5.062;2023-04-29T11:30:49;99577.13;;;22.35;67.74
57376;BME280;44805;45.048;5.062;2023-04-29T11:33:14;99581.13;;;22.56;68.15
57376;BME280;44805;45.048;5.062;2023-04-29T11:35:40;99571.56;;;22.48;67.46
57376;BME280;44805;45.048;5.062;2023-04-29T11:38:06;99563.66;;;22.89;66.48
57376;BME280;44805;45.048;5.062;2023-04-29T11:40:31;99576.31;;;23.00;65.93
57376;BME280;44805;45.048;5.062;2023-04-29T11:42:57;99568.25;;;23.00;65.82
57376;BME280;44805;45.048;5.062;2023-04-29T11:45:22;99565.31;;;23.13;65.53
57376;BME280;44805;45.048;5.062;2023-04-29T11:47:48;99560.44;;;23.51;64.07
57376;BME280;44805;45.048;5.062;2023-04-29T11:50:14;99570.81;;;23.18;66.42
57376;BME280;44805;45.048;5.062;2023-04-29T11:52:46;99571.75;;;23.01;67.10
57376;BME280;44805;45.048;5.062;2023-04-29T12:06:06;99558.91;;;24.24;62.56
57376;BME280;44805;45.048;5.062;2023-04-29T12:08:34;99552.66;;;24.35;61.33
57376;BME280;44805;45.048;5.062;2023-04-29T12:11:00;99561.13;;;23.81;63.85
57376;BME280;44805;45.048;5.062;2023-04-29T12:13:29;99560.66;;;23.21;66.11
57376;BME280;44805;45.048;5.062;2023-04-29T12:15:55;99556.53;;;22.94;66.84
57376;BME280;44805;45.048;5.062;2023-04-29T12:18:20;99559.00;;;23.19;65.28
57376;BME280;44805;45.048;5.062;2023-04-29T12:20:47;99558.63;;;23.28;64.79
57376;BME280;44805;45.048;5.062;2023-04-29T12:23:13;99559.84;;;23.60;63.60
57376;BME280;44805;45.048;5.062;2023-04-29T12:25:39;99562.81;;;23.99;63.03
57376;BME280;44805;45.048;5.062;2023-04-29T12:28:11;99561.56;;;23.78;62.89
57376;BME280;44805;45.048;5.062;2023-04-29T12:30:37;99561.63;;;23.95;63.12
57376;BME280;44805;45.048;5.062;2023-04-29T12:33:02;99562.53;;;23.60;61.02
57376;BME280;44805;45.048;5.062;2023-04-29T12:35:27;99563.59;;;23.59;63.00
57376;BME280;44805;45.048;5.062;2023-04-29T12:37:53;99563.41;;;23.90;62.60
57376;BME280;44805;45.048;5.062;2023-04-29T12:40:18;99564.31;;;23.43;63.39
57376;BME280;44805;45.048;5.062;2023-04-29T12:42:44;99566.41;;;23.65;63.69
57376;BME280;44805;45.048;5.062;2023-04-29T12:45:29;99571.28;;;23.68;62.90
57376;BME280;44805;45.048;5.062;2023-04-29T12:47:58;99580.22;;;23.56;63.51
57376;BME280;44805;45.048;5.062;2023-04-29T12:50:36;99578.66;;;23.60;62.77
57376;BME280;44805;45.048;5.062;2023-04-29T12:53:06;99574.19;;;23.02;64.24
57376;BME280;44805;45.048;5.062;2023-04-29T12:55:36;99575.13;;;23.19;64.93
57376;BME280;44805;45.048;5.062;2023-04-29T12:58:02;99585.41;;;22.99;66.34
57376;BME280;44805;45.048;5.062;2023-04-29T13:00:28;99573.97;;;23.15;66.16
57376;BME280;44805;45.048;5.062;2023-04-29T13:02:53;99578.63;;;23.32;64.21
57376;BME280;44805;45.048;5.062;2023-04-29T13:05:18;99580.13;;;23.28;64.45
57376;BME280;44805;45.048;5.062;2023-04-29T13:07:44;99562.34;;;23.50;64.29
57376;BME280;44805;45.048;5.062;2023-04-29T13:10:09;99571.19;;;23.51;64.31
57376;BME280;44805;45.048;5.062;2023-04-29T13:12:36;99570.75;;;23.42;63.54
57376;BME280;44805;45.048;5.062;2023-04-29T13:15:02;99565.88;;;23.39;64.03
57376;BME280;44805;45.048;5.062;2023-04-29T13:17:28;99569.03;;;23.12;63.62
57376;BME280;44805;45.048;5.062;2023-04-29T13:19:53;99568.72;;;23.21;63.35
57376;BME280;44805;45.048;5.062;2023-04-29T13:22:19;99563.41;;;23.49;62.46
57376;BME280;44805;45.048;5.062;2023-04-29T13:24:44;99560.88;;;23.31;62.23
57376;BME280;44805;45.048;5.062;2023-04-29T13:27:10;99557.59;;;23.17;62.35
57376;BME280;44805;45.048;5.062;2023-04-29T13:29:35;99564.81;;;23.40;62.71
57376;BME280;44805;45.048;5.062;2023-04-29T13:32:01;99557.13;;;23.32;62.02
57376;BME280;44805;45.048;5.062;2023-04-29T13:34:26;99562.09;;;23.52;62.66
57376;BME280;44805;45.048;5.062;2023-04-29T13:36:51;99556.16;;;23.38;60.50
57376;BME280;44805;45.048;5.062;2023-04-29T13:39:20;99555.56;;;23.48;60.31
57376;BME280;44805;45.048;5.062;2023-04-29T13:41:47;99554.69;;;23.82;60.12
57376;BME280;44805;45.048;5.062;2023-04-29T13:44:12;99550.38;;;23.58;61.54